Time;durP1;ratioP1;P1;durP2;ratioP2;P2;SDS_P1;SDS_P2;PMS_P1;PMS_P2;Temp;Humidity;BMP_temperature;BMP_pressure;BME280_temperature;BME280_humidity;BME280_pressure;Samples;Min_cycle;Max_cycle;Signal;HPM_P1;HPM_P2
2021/01/06 00:00:08;;;;;;;8.48;6.68;;;24.30;28.90;;;;;;5033808;28;20399;-69
2021/01/06 00:02:33;;;;;;;7.47;6.10;;;24.30;28.80;;;;;;5033849;28;20457;-69
2021/01/06 00:04:59;;;;;;;7.97;6.23;;;24.30;29.00;;;;;;5033611;28;20484;-69
2021/01/06 00:07:25;;;;;;;7.68;6.20;;;24.30;29.00;;;;;;5034182;28;20383;-69
2021/01/06 00:09:50;;;;;;;7.73;6.40;;;24.20;29.10;;;;;;5033868;28;20802;-69
2021/01/06 00:12:18;;;;;;;7.33;6.50;;;24.20;29.10;;;;;;5033895;28;20871;-69
2021/01/06 00:14:44;;;;;;;8.05;6.40;;;24.20;29.10;;;;;;5033819;28;20464;-68
2021/01/06 00:17:10;;;;;;;6.85;6.13;;;24.20;29.10;;;;;;5033568;28;20391;-69
2021/01/06 00:19:36;;;;;;;8.02;6.35;;;24.20;29.10;;;;;;5033837;28;20802;-69
2021/01/06 00:22:01;;;;;;;8.20;6.77;;;24.20;29.10;;;;;;5033832;28;20387;-69
2021/01/06 00:24:27;;;;;;;7.75;6.20;;;24.20;29.20;;;;;;5033603;28;20391;-69
2021/01/06 00:26:53;;;;;;;7.93;6.15;;;24.10;29.20;;;;;;5033595;28;20379;-69
2021/01/06 00:29:18;;;;;;;7.53;6.10;;;24.10;29.20;;;;;;5033261;28;20894;-69
2021/01/06 00:31:44;;;;;;;7.38;6.38;;;24.10;29.20;;;;;;5032146;28;20750;-69
2021/01/06 00:34:11;;;;;;;7.67;6.60;;;24.10;29.30;;;;;;5033503;28;20403;-69
2021/01/06 00:36:37;;;;;;;8.88;6.90;;;24.00;29.30;;;;;;5033586;28;20399;-69
2021/01/06 00:39:05;;;;;;;8.27;6.63;;;24.00;29.30;;;;;;5032928;28;20387;-69
2021/01/06 00:41:33;;;;;;;8.98;6.72;;;24.00;29.30;;;;;;5033419;28;20395;-69
2021/01/06 00:43:59;;;;;;;7.68;6.60;;;24.00;29.30;;;;;;5033308;28;20391;-69
2021/01/06 00:46:32;;;;;;;8.02;6.60;;;23.90;29.30;;;;;;5033206;28;20445;-70
2021/01/06 00:48:59;;;;;;;9.13;6.97;;;23.90;29.40;;;;;;5031666;28;20481;-69
2021/01/06 00:51:26;;;;;;;7.75;6.38;;;23.90;29.40;;;;;;5033264;28;20395;-69
2021/01/06 00:53:52;;;;;;;8.57;6.47;;;23.90;29.50;;;;;;5031902;28;20391;-69
2021/01/06 00:56:26;;;;;;;8.25;6.78;;;23.90;29.40;;;;;;5033129;28;20827;-69
2021/01/06 00:58:52;;;;;;;7.60;6.25;;;23.80;29.40;;;;;;5031853;28;20827;-69
2021/01/06 01:01:17;;;;;;;7.43;6.30;;;23.80;29.40;;;;;;5032387;28;20879;-69
2021/01/06 01:03:44;;;;;;;8.20;6.75;;;23.80;29.40;;;;;;5031684;28;20387;-69
2021/01/06 01:06:10;;;;;;;8.68;7.05;;;23.80;29.40;;;;;;5032873;28;20387;-69
2021/01/06 01:08:35;;;;;;;7.70;6.50;;;23.70;29.40;;;;;;5032901;28;20391;-69
2021/01/06 01:11:01;;;;;;;8.33;6.37;;;23.70;29.50;;;;;;5031154;28;20395;-68
2021/01/06 01:13:27;;;;;;;7.95;6.40;;;23.70;29.50;;;;;;5027525;28;20391;-69
2021/01/06 01:15:55;;;;;;;8.10;6.47;;;23.70;29.50;;;;;;5030782;28;20466;-69
2021/01/06 01:18:24;;;;;;;7.72;6.70;;;23.70;29.50;;;;;;5028589;28;20394;-69
2021/01/06 01:20:52;;;;;;;7.63;6.45;;;23.60;29.70;;;;;;5032315;28;20771;-68
2021/01/06 01:23:19;;;;;;;8.07;6.45;;;23.50;29.70;;;;;;5031940;28;20387;-69
2021/01/06 01:25:46;;;;;;;7.13;6.17;;;23.60;29.70;;;;;;5032497;28;20482;-68
2021/01/06 01:28:13;;;;;;;7.90;6.07;;;23.50;29.70;;;;;;5032631;28;20383;-69
2021/01/06 01:30:39;;;;;;;7.85;5.97;;;23.50;29.80;;;;;;5031316;28;20971;-69
2021/01/06 01:33:05;;;;;;;7.97;6.10;;;23.50;29.70;;;;;;5032230;28;20494;-69
2021/01/06 01:35:33;;;;;;;7.30;6.10;;;23.40;29.70;;;;;;5031524;28;20467;-69
2021/01/06 01:38:01;;;;;;;7.40;5.78;;;23.40;29.70;;;;;;5030911;28;20425;-69
2021/01/06 01:40:30;;;;;;;7.47;6.05;;;23.40;29.70;;;;;;5030924;28;20407;-69
2021/01/06 01:43:04;;;;;;;6.50;5.82;;;23.40;29.80;;;;;;5032643;28;20406;-69
2021/01/06 01:45:45;;;;;;;6.73;5.63;;;23.30;29.80;;;;;;5031452;28;20728;-69
2021/01/06 01:48:38;;;;;;;7.35;6.10;;;23.30;29.70;;;;;;5031377;28;20752;-68
2021/01/06 01:51:27;;;;;;;6.57;5.70;;;23.20;29.70;;;;;;5032190;28;20383;-69
2021/01/06 01:54:05;;;;;;;7.15;5.70;;;23.20;29.70;;;;;;5032488;28;20387;-70
2021/01/06 01:56:41;;;;;;;6.47;5.78;;;23.10;29.70;;;;;;5032345;28;20895;-69
2021/01/06 01:59:13;;;;;;;6.82;5.60;;;23.10;29.60;;;;;;5030675;28;20430;-69
2021/01/06 02:01:39;;;;;;;6.40;5.70;;;23.10;29.60;;;;;;5031009;28;20453;-68
2021/01/06 02:04:14;;;;;;;6.57;5.57;;;23.00;29.60;;;;;;5032435;28;20379;-69
2021/01/06 02:07:10;;;;;;;6.40;5.70;;;23.00;29.50;;;;;;5032372;28;20478;-69
2021/01/06 02:10:24;;;;;;;6.20;5.30;;;23.00;29.60;;;;;;5032165;28;20395;-70
2021/01/06 02:12:57;;;;;;;6.25;5.55;;;23.00;29.60;;;;;;5018679;28;20489;-69
2021/01/06 02:15:34;;;;;;;5.88;5.22;;;23.00;29.60;;;;;;5030226;28;20415;-69
2021/01/06 02:18:00;;;;;;;6.22;5.25;;;22.90;29.60;;;;;;5030795;28;20755;-69
2021/01/06 02:20:27;;;;;;;6.53;5.35;;;22.90;30.00;;;;;;5032131;28;20421;-69
2021/01/06 02:22:55;;;;;;;6.72;5.32;;;22.90;29.70;;;;;;5029637;28;20393;-70
2021/01/06 02:25:23;;;;;;;6.03;5.43;;;22.80;29.70;;;;;;5031644;28;20395;-69
2021/01/06 02:27:48;;;;;;;7.10;5.43;;;22.80;29.70;;;;;;5031656;28;20397;-69
2021/01/06 02:30:15;;;;;;;7.22;5.18;;;22.80;29.70;;;;;;5030766;28;20387;-69
2021/01/06 02:32:41;;;;;;;6.03;5.32;;;22.80;29.70;;;;;;5031615;28;20415;-69
2021/01/06 02:35:09;;;;;;;5.90;5.05;;;22.70;29.60;;;;;;5030694;28;20418;-70
2021/01/06 02:37:35;;;;;;;6.47;5.15;;;22.70;29.60;;;;;;5031817;28;20468;-69
2021/01/06 02:40:02;;;;;;;5.63;5.03;;;22.70;29.70;;;;;;5030524;28;20486;-69
2021/01/06 02:42:28;;;;;;;5.60;4.80;;;22.70;29.60;;;;;;5031601;28;20916;-69
2021/01/06 02:44:54;;;;;;;6.30;4.93;;;22.60;29.60;;;;;;5031756;28;20396;-69
2021/01/06 02:47:20;;;;;;;5.35;4.85;;;22.60;29.60;;;;;;5031234;28;20410;-69
2021/01/06 02:49:46;;;;;;;5.70;5.10;;;22.60;29.60;;;;;;5030864;28;20391;-69
2021/01/06 02:52:30;;;;;;;5.65;5.05;;;22.60;29.60;;;;;;5031233;28;20905;-70
2021/01/06 02:54:56;;;;;;;7.20;4.82;;;22.60;29.90;;;;;;5028575;28;20938;-70
2021/01/06 02:57:23;;;;;;;6.20;5.15;;;22.50;30.90;;;;;;5027381;28;20418;-70
2021/01/06 02:59:50;;;;;;;7.40;5.22;;;22.60;31.30;;;;;;5031288;28;20429;-70
2021/01/06 03:02:20;;;;;;;5.90;5.07;;;22.60;31.80;;;;;;5030835;28;20390;-69
2021/01/06 03:05:23;;;;;;;7.50;4.78;;;22.60;32.10;;;;;;5011934;28;20377;-69
2021/01/06 03:07:49;;;;;;;7.57;4.90;;;22.50;31.90;;;;;;5011747;28;20403;-69
2021/01/06 03:10:19;;;;;;;6.90;5.03;;;22.50;32.10;;;;;;5011716;28;20869;-69
2021/01/06 03:12:48;;;;;;;6.07;4.95;;;22.50;32.10;;;;;;5011347;28;20889;-69
2021/01/06 03:15:16;;;;;;;6.85;4.90;;;22.40;32.00;;;;;;5010013;28;20428;-69
2021/01/06 03:17:42;;;;;;;8.63;4.88;;;22.40;32.40;;;;;;5011535;28;20389;-69
2021/01/06 03:20:15;;;;;;;6.75;4.70;;;22.40;32.30;;;;;;5011658;28;20400;-69
2021/01/06 03:22:44;;;;;;;6.57;4.32;;;22.40;32.50;;;;;;5010218;28;20731;-69
2021/01/06 03:25:16;;;;;;;5.63;4.50;;;22.40;32.50;;;;;;5009812;28;20397;-69
2021/01/06 03:27:44;;;;;;;6.32;4.78;;;22.40;32.50;;;;;;5010161;28;20388;-69
2021/01/06 03:30:31;;;;;;;6.00;4.70;;;22.40;32.50;;;;;;5010208;28;20401;-69
2021/01/06 03:33:06;;;;;;;5.70;4.28;;;22.40;32.40;;;;;;5009843;28;20471;-69
2021/01/06 03:35:42;;;;;;;6.43;4.68;;;22.40;32.40;;;;;;5009810;28;20463;-69
2021/01/06 03:38:29;;;;;;;5.57;4.25;;;22.30;32.30;;;;;;5011479;28;20460;-69
2021/01/06 03:40:55;;;;;;;7.78;4.75;;;22.30;32.30;;;;;;5011287;28;20908;-69
2021/01/06 03:43:25;;;;;;;5.80;4.30;;;22.30;32.10;;;;;;5009650;28;20401;-69
2021/01/06 03:46:04;;;;;;;7.30;4.60;;;22.30;32.80;;;;;;5011086;28;20401;-69
2021/01/06 03:48:58;;;;;;;5.57;4.10;;;22.20;32.30;;;;;;5010028;28;20885;-69
2021/01/06 03:51:44;;;;;;;6.38;4.43;;;22.20;32.30;;;;;;5009873;28;20397;-69
2021/01/06 03:54:47;;;;;;;6.57;4.30;;;22.20;32.10;;;;;;5011187;28;20451;-69
2021/01/06 03:57:14;;;;;;;5.15;4.18;;;22.20;32.00;;;;;;5010677;28;20397;-69
2021/01/06 03:59:42;;;;;;;4.95;4.45;;;22.20;32.00;;;;;;5010041;28;20428;-69
2021/01/06 04:02:14;;;;;;;4.93;4.20;;;22.20;32.20;;;;;;5013495;28;20405;-69
2021/01/06 04:04:48;;;;;;;5.25;4.35;;;22.10;31.90;;;;;;5013552;28;20389;-70
2021/01/06 04:07:35;;;;;;;4.70;4.20;;;22.10;31.90;;;;;;5014336;28;20438;-69
2021/01/06 04:10:06;;;;;;;5.10;4.18;;;22.10;31.90;;;;;;5014642;28;20396;-69
2021/01/06 04:12:32;;;;;;;4.68;4.18;;;22.10;31.80;;;;;;5014627;28;20401;-69
2021/01/06 04:14:57;;;;;;;4.73;4.20;;;22.10;32.10;;;;;;5014506;28;20416;-69
2021/01/06 04:17:33;;;;;;;4.90;4.32;;;22.00;31.60;;;;;;5014111;28;20416;-69
2021/01/06 04:20:25;;;;;;;4.78;4.28;;;22.00;31.70;;;;;;5014517;28;20388;-69
2021/01/06 04:22:56;;;;;;;4.60;3.75;;;22.00;31.60;;;;;;5014449;28;20389;-69
2021/01/06 04:25:36;;;;;;;4.75;4.25;;;22.00;31.70;;;;;;5014139;28;20900;-69
2021/01/06 04:28:01;;;;;;;4.77;3.97;;;21.90;31.70;;;;;;5014416;28;20389;-69
2021/01/06 04:30:30;;;;;;;4.40;4.00;;;21.90;31.60;;;;;;5013112;28;20392;-69
2021/01/06 04:32:57;;;;;;;4.55;4.15;;;21.90;31.60;;;;;;5014246;28;20773;-69
2021/01/06 04:35:24;;;;;;;5.00;3.90;;;21.90;31.70;;;;;;5012805;28;20852;-69
2021/01/06 04:37:50;;;;;;;4.53;3.90;;;21.90;31.60;;;;;;5012970;28;20546;-69
2021/01/06 04:40:19;;;;;;;5.07;3.90;;;21.90;31.50;;;;;;5014239;28;20427;-69
2021/01/06 04:42:45;;;;;;;4.63;4.03;;;21.80;31.50;;;;;;5014097;28;20443;-69
2021/01/06 04:45:15;;;;;;;4.32;3.80;;;21.80;31.60;;;;;;5012632;28;20867;-67
2021/01/06 04:48:14;;;;;;;4.78;4.28;;;21.80;31.50;;;;;;5012596;28;20393;-67
2021/01/06 04:50:59;;;;;;;4.30;3.90;;;21.80;31.50;;;;;;5012976;28;20400;-67
2021/01/06 04:53:45;;;;;;;4.88;4.30;;;21.80;31.50;;;;;;5012235;28;20388;-66
2021/01/06 04:56:52;;;;;;;4.45;4.00;;;21.80;31.50;;;;;;5013844;28;20435;-66
2021/01/06 04:59:36;;;;;;;4.40;4.00;;;21.70;31.40;;;;;;5013403;28;20469;-66
2021/01/06 05:02:10;;;;;;;4.97;4.30;;;21.70;31.40;;;;;;5013775;28;20385;-67
2021/01/06 05:05:04;;;;;;;4.70;4.15;;;21.70;31.30;;;;;;5013719;28;20389;-66
2021/01/06 05:07:47;;;;;;;4.88;4.38;;;21.60;31.30;;;;;;5013250;28;20393;-67
2021/01/06 05:10:31;;;;;;;4.55;4.15;;;21.70;31.40;;;;;;5013562;28;20411;-67
2021/01/06 05:13:20;;;;;;;4.75;4.05;;;21.70;31.40;;;;;;5011333;28;20389;-67
2021/01/06 05:15:56;;;;;;;4.60;4.10;;;21.60;31.30;;;;;;5015952;28;20897;-67
2021/01/06 05:18:22;;;;;;;4.53;4.03;;;21.60;31.30;;;;;;5012221;28;20853;-67
2021/01/06 05:20:48;;;;;;;4.88;4.28;;;21.60;31.40;;;;;;5012105;28;20440;-67
2021/01/06 05:23:19;;;;;;;4.70;4.20;;;21.60;31.30;;;;;;5011660;28;20527;-67
2021/01/06 05:25:46;;;;;;;4.75;4.30;;;21.60;31.50;;;;;;5013288;28;20404;-67
2021/01/06 05:28:15;;;;;;;4.95;4.45;;;21.60;31.40;;;;;;5012019;28;20492;-67
2021/01/06 05:30:40;;;;;;;4.97;4.20;;;21.60;31.50;;;;;;5011695;28;20412;-67
2021/01/06 05:33:09;;;;;;;5.03;4.45;;;21.60;31.40;;;;;;5013061;28;20417;-67
2021/01/06 05:35:46;;;;;;;4.50;4.05;;;21.50;31.40;;;;;;5012809;28;20420;-67
2021/01/06 05:38:12;;;;;;;4.57;4.10;;;21.50;31.30;;;;;;5013171;28;20397;-66
2021/01/06 05:40:40;;;;;;;4.80;4.30;;;21.50;31.30;;;;;;5011584;28;20400;-66
2021/01/06 05:43:18;;;;;;;4.65;4.15;;;21.50;31.30;;;;;;5011731;28;20400;-67
2021/01/06 05:45:57;;;;;;;4.90;4.40;;;21.50;31.30;;;;;;5011644;28;20439;-66
2021/01/06 05:48:49;;;;;;;4.50;4.00;;;21.40;31.30;;;;;;5011675;28;20492;-67
2021/01/06 05:51:21;;;;;;;4.65;4.25;;;21.40;31.40;;;;;;5012352;28;20389;-66
2021/01/06 05:54:18;;;;;;;4.40;4.00;;;21.40;31.30;;;;;;5011494;28;20897;-67
2021/01/06 05:56:43;;;;;;;4.47;4.07;;;21.40;31.40;;;;;;5011260;28;20800;-67
2021/01/06 05:59:20;;;;;;;4.45;4.05;;;21.40;31.30;;;;;;5011350;28;20403;-67
2021/01/06 06:02:14;;;;;;;4.88;4.38;;;21.40;31.40;;;;;;5012574;28;20905;-66
2021/01/06 06:05:01;;;;;;;4.80;4.30;;;21.30;31.30;;;;;;5011210;28;20936;-67
2021/01/06 06:07:40;;;;;;;4.27;3.87;;;21.40;31.30;;;;;;5012030;28;20885;-66
2021/01/06 06:10:27;;;;;;;4.40;4.00;;;21.30;31.30;;;;;;5011303;28;20409;-67
2021/01/06 06:12:58;;;;;;;4.40;4.00;;;21.30;31.40;;;;;;5027568;28;20896;-66
2021/01/06 06:15:45;;;;;;;4.40;4.00;;;21.30;31.40;;;;;;5011972;28;20417;-67
2021/01/06 06:18:17;;;;;;;4.70;4.20;;;21.30;31.40;;;;;;5011110;28;20745;-66
2021/01/06 06:21:16;;;;;;;4.80;4.30;;;21.30;31.30;;;;;;5010865;28;20412;-66
2021/01/06 06:23:58;;;;;;;4.90;4.40;;;21.30;31.40;;;;;;5012124;28;20385;-67
2021/01/06 06:27:03;;;;;;;4.30;3.90;;;21.30;31.30;;;;;;5012110;28;20396;-66
2021/01/06 06:30:10;;;;;;;4.35;3.95;;;21.40;31.50;;;;;;5010512;28;20396;-67
2021/01/06 06:32:37;;;;;;;4.40;4.00;;;21.50;31.10;;;;;;5029372;28;20895;-67
2021/01/06 06:35:17;;;;;;;4.00;3.60;;;21.60;31.10;;;;;;5013016;28;21124;-66
2021/01/06 06:37:56;;;;;;;4.37;3.97;;;21.60;31.00;;;;;;5010536;28;20431;-66
2021/01/06 06:40:23;;;;;;;4.30;3.90;;;21.60;30.90;;;;;;5010771;28;20829;-67
2021/01/06 06:42:52;;;;;;;4.03;3.63;;;21.70;30.80;;;;;;5011901;28;20862;-67
2021/01/06 06:45:44;;;;;;;4.28;3.83;;;21.70;30.80;;;;;;5011456;28;20436;-66
2021/01/06 06:48:16;;;;;;;4.13;3.50;;;21.70;30.80;;;;;;5011827;28;20869;-66
2021/01/06 06:50:55;;;;;;;4.10;3.70;;;21.70;30.70;;;;;;5011674;28;20467;-66
2021/01/06 06:53:46;;;;;;;3.90;3.50;;;21.80;30.70;;;;;;5010093;28;20385;-67
2021/01/06 06:56:20;;;;;;;4.45;4.03;;;21.80;30.70;;;;;;5010488;28;20512;-66
2021/01/06 06:58:58;;;;;;;4.03;3.63;;;21.80;30.60;;;;;;5011697;28;20424;-66
2021/01/06 07:01:32;;;;;;;3.95;3.55;;;21.80;30.60;;;;;;5009926;28;20750;-66
2021/01/06 07:04:02;;;;;;;4.15;3.72;;;21.80;30.60;;;;;;5011811;28;20733;-66
2021/01/06 07:06:29;;;;;;;4.05;3.55;;;21.80;30.50;;;;;;5010421;28;20785;-67
2021/01/06 07:08:58;;;;;;;4.32;3.92;;;21.80;30.50;;;;;;5011653;28;20389;-66
2021/01/06 07:11:44;;;;;;;4.00;3.60;;;21.80;30.40;;;;;;5009886;28;20393;-67
2021/01/06 07:14:30;;;;;;;4.50;4.10;;;21.90;30.40;;;;;;5010467;28;20381;-66
2021/01/06 07:17:28;;;;;;;4.22;3.65;;;21.80;30.30;;;;;;5010201;28;20770;-66
2021/01/06 07:19:57;;;;;;;4.32;3.92;;;21.80;30.30;;;;;;5011770;28;20428;-66
2021/01/06 07:22:40;;;;;;;4.40;4.00;;;21.90;30.40;;;;;;5010279;28;20416;-66
2021/01/06 07:25:12;;;;;;;4.10;3.60;;;21.80;30.30;;;;;;5010187;28;20392;-66
2021/01/06 07:27:38;;;;;;;4.30;3.90;;;21.80;30.30;;;;;;5009567;28;20455;-66
2021/01/06 07:30:05;;;;;;;4.10;3.70;;;21.90;30.30;;;;;;5011469;28;20912;-66
2021/01/06 07:32:40;;;;;;;4.38;3.97;;;21.80;30.20;;;;;;5026424;28;20448;-67
2021/01/06 07:35:20;;;;;;;4.30;3.90;;;21.80;30.20;;;;;;5012200;28;20427;-67
2021/01/06 07:37:54;;;;;;;4.85;4.22;;;21.90;30.20;;;;;;5015258;28;20428;-66
2021/01/06 07:40:28;;;;;;;4.00;3.60;;;21.90;30.20;;;;;;5015300;28;20854;-66
2021/01/06 07:43:17;;;;;;;4.07;3.50;;;21.90;30.20;;;;;;5013897;28;20389;-67
2021/01/06 07:45:58;;;;;;;5.63;4.60;;;21.90;30.80;;;;;;5014791;28;20405;-67
2021/01/06 07:48:42;;;;;;;5.60;5.10;;;21.80;29.80;;;;;;5013901;28;20746;-66
2021/01/06 07:51:20;;;;;;;5.03;4.53;;;21.70;30.00;;;;;;5013926;28;20473;-67
2021/01/06 07:54:00;;;;;;;5.60;5.00;;;21.70;29.90;;;;;;5014843;28;20392;-67
2021/01/06 07:56:36;;;;;;;7.03;4.80;;;21.70;29.90;;;;;;5015032;28;20977;-69
2021/01/06 07:59:12;;;;;;;5.13;4.60;;;21.70;30.20;;;;;;5014988;28;20462;-69
2021/01/06 08:02:11;;;;;;;4.85;4.35;;;21.70;30.30;;;;;;5014226;28;20408;-69
2021/01/06 08:04:55;;;;;;;5.30;4.50;;;21.70;30.20;;;;;;5013486;28;20874;-69
2021/01/06 08:07:23;;;;;;;5.75;4.80;;;21.70;30.40;;;;;;5014539;28;20405;-69
2021/01/06 08:09:49;;;;;;;5.88;4.47;;;21.80;30.40;;;;;;5014780;28;20385;-69
2021/01/06 08:12:41;;;;;;;5.15;4.30;;;21.80;30.50;;;;;;5029998;28;20427;-69
2021/01/06 08:15:24;;;;;;;4.68;4.18;;;21.80;30.60;;;;;;5015372;28;20409;-69
2021/01/06 08:18:08;;;;;;;4.68;4.20;;;21.80;30.70;;;;;;5014688;28;20928;-69
2021/01/06 08:20:39;;;;;;;5.10;4.47;;;21.70;30.70;;;;;;5013136;28;20753;-69
2021/01/06 08:23:14;;;;;;;4.70;4.20;;;21.80;30.80;;;;;;5014499;28;20393;-69
2021/01/06 08:25:40;;;;;;;5.60;4.30;;;21.80;30.80;;;;;;5013986;28;20456;-69
2021/01/06 08:28:18;;;;;;;4.95;4.20;;;21.80;31.00;;;;;;5013198;28;20401;-69
2021/01/06 08:30:44;;;;;;;4.30;3.90;;;21.70;30.90;;;;;;5012965;28;20388;-69
2021/01/06 08:33:13;;;;;;;4.80;4.00;;;21.70;31.00;;;;;;5014290;28;20995;-69
2021/01/06 08:35:44;;;;;;;4.40;4.00;;;21.70;30.90;;;;;;5013803;28;20421;-69
2021/01/06 08:38:29;;;;;;;4.65;4.15;;;21.80;31.00;;;;;;5014381;28;20904;-69
2021/01/06 08:41:12;;;;;;;4.85;4.35;;;21.70;30.90;;;;;;5012695;28;20401;-69
2021/01/06 08:43:39;;;;;;;4.30;3.90;;;21.70;31.00;;;;;;5013781;28;20403;-69
2021/01/06 08:46:05;;;;;;;4.47;4.07;;;21.70;31.00;;;;;;5013433;28;20424;-69
2021/01/06 08:48:36;;;;;;;4.37;3.87;;;21.70;31.10;;;;;;5013259;28;20452;-69
2021/01/06 08:51:10;;;;;;;3.95;3.55;;;21.70;31.00;;;;;;5014063;28;20399;-69
2021/01/06 08:53:40;;;;;;;4.07;3.67;;;21.70;31.00;;;;;;5013467;28;20531;-69
2021/01/06 08:56:18;;;;;;;4.35;3.72;;;21.70;31.00;;;;;;5012466;28;20417;-69
2021/01/06 08:58:47;;;;;;;4.82;3.90;;;21.70;30.90;;;;;;5013825;28;20899;-69
2021/01/06 09:01:44;;;;;;;4.10;3.70;;;21.70;31.00;;;;;;5012365;28;20401;-69
2021/01/06 09:04:15;;;;;;;4.10;3.67;;;21.60;30.80;;;;;;5013803;28;20393;-69
2021/01/06 09:06:54;;;;;;;4.00;3.60;;;21.60;31.00;;;;;;5013668;28;20488;-69
2021/01/06 09:09:26;;;;;;;4.53;4.00;;;21.60;31.20;;;;;;5012157;28;20492;-70
2021/01/06 09:11:56;;;;;;;4.00;3.60;;;21.60;31.10;;;;;;5012222;28;20401;-69
2021/01/06 09:14:37;;;;;;;3.70;3.30;;;21.60;31.00;;;;;;5012187;28;20919;-69
2021/01/06 09:17:48;;;;;;;3.77;3.40;;;21.70;31.00;;;;;;5012232;28;20512;-70
2021/01/06 09:20:20;;;;;;;3.88;3.45;;;21.70;30.90;;;;;;5031025;28;20403;-66
2021/01/06 09:22:47;;;;;;;3.90;3.40;;;21.70;30.90;;;;;;5014389;28;20399;-67
2021/01/06 09:25:17;;;;;;;3.67;3.13;;;21.70;30.80;;;;;;5021248;28;20443;-66
2021/01/06 09:27:47;;;;;;;4.10;3.40;;;21.70;30.70;;;;;;5011444;28;20809;-67
2021/01/06 09:30:16;;;;;;;3.63;3.28;;;21.70;30.70;;;;;;5013222;28;20472;-66
2021/01/06 09:32:44;;;;;;;3.78;3.40;;;21.70;30.60;;;;;;5011752;28;20487;-66
2021/01/06 09:35:16;;;;;;;4.10;3.63;;;21.70;30.60;;;;;;5044913;28;20467;-66
2021/01/06 09:37:52;;;;;;;3.88;3.47;;;21.70;30.60;;;;;;5012610;28;20465;-67
2021/01/06 09:40:19;;;;;;;3.90;3.50;;;21.70;30.50;;;;;;5013129;28;20412;-67
2021/01/06 09:43:06;;;;;;;3.50;3.20;;;21.70;30.50;;;;;;5012983;28;20387;-67
2021/01/06 09:45:33;;;;;;;3.40;3.10;;;21.70;30.50;;;;;;5012586;28;20392;-66
2021/01/06 09:48:02;;;;;;;3.70;3.40;;;21.70;30.50;;;;;;5012950;28;20802;-66
2021/01/06 09:50:49;;;;;;;3.75;3.35;;;21.70;30.40;;;;;;5012916;28;20392;-67
2021/01/06 09:53:18;;;;;;;3.33;3.03;;;21.70;30.40;;;;;;5012969;28;20380;-67
2021/01/06 09:55:49;;;;;;;3.40;3.10;;;21.70;30.40;;;;;;5012419;28;20766;-66
2021/01/06 09:58:37;;;;;;;3.75;3.38;;;21.70;30.30;;;;;;5012382;28;20389;-67
2021/01/06 10:01:18;;;;;;;3.90;3.50;;;21.70;30.30;;;;;;5011754;28;20455;-66
2021/01/06 10:03:47;;;;;;;3.95;3.55;;;21.70;30.20;;;;;;5010849;28;20480;-67
2021/01/06 10:06:32;;;;;;;3.70;3.28;;;21.70;30.20;;;;;;5011359;28;20804;-67
2021/01/06 10:09:20;;;;;;;3.60;3.30;;;21.80;30.30;;;;;;5012576;28;20392;-67
2021/01/06 10:11:48;;;;;;;3.80;3.40;;;21.70;30.10;;;;;;5010743;28;20745;-67
2021/01/06 10:14:49;;;;;;;4.50;3.70;;;21.70;30.00;;;;;;5012382;28;20438;-67
2021/01/06 10:17:27;;;;;;;3.92;3.53;;;21.70;30.00;;;;;;5022000;28;20416;-67
2021/01/06 10:20:06;;;;;;;3.90;3.50;;;21.70;30.00;;;;;;5012123;28;20404;-67
2021/01/06 10:22:51;;;;;;;4.00;3.60;;;21.70;30.00;;;;;;5012319;28;20440;-68
2021/01/06 10:25:57;;;;;;;4.00;3.58;;;21.70;30.00;;;;;;5012321;28;20483;-68
2021/01/06 10:28:22;;;;;;;4.68;3.70;;;21.70;30.00;;;;;;5023289;28;20434;-68
2021/01/06 10:31:08;;;;;;;4.07;3.53;;;21.80;30.00;;;;;;5030269;28;20419;-68
2021/01/06 10:33:36;;;;;;;4.13;3.72;;;21.70;30.00;;;;;;5029998;28;20407;-68
2021/01/06 10:36:07;;;;;;;4.18;3.58;;;21.80;30.00;;;;;;5031766;28;20472;-68
2021/01/06 10:38:44;;;;;;;4.00;3.47;;;21.70;30.00;;;;;;5030392;28;20391;-68
2021/01/06 10:41:30;;;;;;;6.57;3.78;;;21.70;30.10;;;;;;5029830;28;21350;-68
2021/01/06 10:43:58;;;;;;;6.68;4.10;;;21.80;30.30;;;;;;5023263;28;20525;-68
2021/01/06 10:46:38;;;;;;;5.63;3.80;;;21.80;30.50;;;;;;5027859;28;20402;-68
2021/01/06 10:49:26;;;;;;;3.97;3.50;;;21.80;30.70;;;;;;5028659;28;20396;-67
2021/01/06 10:51:56;;;;;;;5.18;3.63;;;21.80;30.80;;;;;;5019018;28;20405;-67
2021/01/06 10:54:34;;;;;;;4.65;3.40;;;21.80;31.00;;;;;;5031075;28;20478;-68
2021/01/06 10:57:08;;;;;;;5.38;3.38;;;21.80;31.10;;;;;;5031135;28;20403;-68
2021/01/06 10:59:34;;;;;;;3.50;3.20;;;21.80;31.10;;;;;;5025571;28;20408;-68
2021/01/06 11:02:36;;;;;;;6.15;3.90;;;21.80;31.10;;;;;;5016526;28;20398;-68
2021/01/06 11:05:16;;;;;;;7.18;4.65;;;21.80;30.70;;;;;;5033184;28;20957;-69
2021/01/06 11:07:48;;;;;;;6.47;4.00;;;21.80;31.50;;;;;;5030826;28;20402;-70
2021/01/06 11:10:35;;;;;;;6.72;3.90;;;21.80;31.60;;;;;;5025571;28;20964;-69
2021/01/06 11:13:21;;;;;;;7.55;4.80;;;21.80;31.70;;;;;;5028703;28;20395;-68
2021/01/06 11:16:16;;;;;;;8.90;4.72;;;21.80;32.00;;;;;;5028616;28;20419;-68
2021/01/06 11:18:47;;;;;;;12.40;4.53;;;21.80;32.50;;;;;;5029895;28;20379;-68
2021/01/06 11:21:39;;;;;;;7.10;4.40;;;21.80;32.60;;;;;;5026471;28;20402;-68
2021/01/06 11:24:48;;;;;;;7.22;4.40;;;21.70;32.80;;;;;;5030159;28;20397;-68
2021/01/06 11:27:33;;;;;;;7.97;4.20;;;21.70;33.00;;;;;;5030947;28;20489;-68
2021/01/06 11:30:23;;;;;;;6.57;4.20;;;21.70;32.90;;;;;;5030092;28;20394;-68
2021/01/06 11:33:10;;;;;;;6.10;4.50;;;21.60;32.90;;;;;;5029989;28;20395;-68
2021/01/06 11:36:02;;;;;;;6.88;4.53;;;21.60;32.90;;;;;;5029848;28;20423;-68
2021/01/06 11:38:55;;;;;;;7.80;4.30;;;21.60;32.70;;;;;;5026568;28;20400;-68
2021/01/06 11:41:27;;;;;;;5.50;4.25;;;21.60;32.90;;;;;;5029410;28;20728;-68
2021/01/06 11:44:21;;;;;;;7.43;4.40;;;21.60;33.00;;;;;;5031357;28;20804;-68
2021/01/06 11:46:53;;;;;;;7.03;4.22;;;21.70;33.00;;;;;;5030890;28;20429;-68
2021/01/06 11:49:24;;;;;;;5.82;4.20;;;21.60;33.00;;;;;;5026268;28;20395;-68
2021/01/06 11:52:27;;;;;;;6.68;4.35;;;21.60;33.40;;;;;;5020765;28;20408;-68
2021/01/06 11:54:55;;;;;;;7.15;4.18;;;21.60;33.00;;;;;;5022166;28;20402;-68
2021/01/06 11:57:45;;;;;;;7.68;4.40;;;21.60;33.30;;;;;;5027060;28;20418;-68
2021/01/06 12:00:55;;;;;;;8.77;4.70;;;21.60;33.10;;;;;;5025387;28;20398;-68
2021/01/06 12:03:34;;;;;;;5.95;4.22;;;21.60;33.00;;;;;;5025638;28;21027;-68
2021/01/06 12:06:15;;;;;;;6.28;4.22;;;21.60;33.00;;;;;;5044176;28;20390;-68
2021/01/06 12:08:59;;;;;;;4.88;4.10;;;21.60;32.90;;;;;;5026528;28;20403;-67
2021/01/06 12:11:32;;;;;;;8.23;4.30;;;21.60;32.90;;;;;;5018355;28;20394;-68
2021/01/06 12:14:09;;;;;;;5.70;4.25;;;21.60;32.90;;;;;;5027187;28;20434;-68
2021/01/06 12:16:44;;;;;;;7.60;6.10;;;21.60;33.10;;;;;;5025805;28;20780;-68
2021/01/06 12:19:41;;;;;;;7.95;5.25;;;21.70;32.00;;;;;;5025396;28;20383;-68
2021/01/06 12:22:11;;;;;;;5.97;4.68;;;21.80;32.60;;;;;;5022507;28;20465;-68
2021/01/06 12:24:37;;;;;;;5.95;4.63;;;21.80;32.50;;;;;;5028023;28;20396;-68
2021/01/06 12:27:23;;;;;;;7.70;4.75;;;21.70;32.40;;;;;;5027744;28;20426;-67
2021/01/06 12:30:18;;;;;;;6.30;4.80;;;21.70;32.60;;;;;;5030465;28;20819;-68
2021/01/06 12:33:08;;;;;;;5.72;4.93;;;21.70;32.60;;;;;;5029685;28;20418;-68
2021/01/06 12:35:42;;;;;;;6.63;4.78;;;21.60;32.80;;;;;;5045493;28;20968;-68
2021/01/06 12:38:22;;;;;;;7.05;5.13;;;21.60;32.80;;;;;;5025504;28;20433;-69
2021/01/06 12:40:56;;;;;;;6.07;4.50;;;21.60;33.00;;;;;;5030693;28;20893;-68
2021/01/06 12:43:27;;;;;;;8.75;4.85;;;21.60;33.20;;;;;;5029344;28;20961;-68
2021/01/06 12:46:12;;;;;;;5.80;4.50;;;21.50;33.00;;;;;;5027356;28;20898;-68
2021/01/06 12:49:04;;;;;;;5.00;4.50;;;21.60;33.00;;;;;;5030609;28;20901;-68
2021/01/06 12:51:34;;;;;;;6.30;4.70;;;21.50;33.00;;;;;;5030143;28;20403;-68
2021/01/06 12:54:04;;;;;;;8.27;4.60;;;21.60;33.20;;;;;;5029914;28;20395;-68
2021/01/06 12:56:40;;;;;;;6.78;4.70;;;21.50;33.10;;;;;;5028187;28;20959;-68
2021/01/06 12:59:22;;;;;;;5.07;4.57;;;21.50;33.10;;;;;;5030057;28;20410;-68
2021/01/06 13:02:02;;;;;;;5.10;4.47;;;21.50;33.10;;;;;;5029272;28;20511;-68
2021/01/06 13:04:38;;;;;;;5.20;4.45;;;21.50;33.20;;;;;;5029491;28;20423;-68
2021/01/06 13:07:13;;;;;;;5.20;4.32;;;21.40;33.20;;;;;;5030220;28;20387;-69
2021/01/06 13:09:54;;;;;;;5.20;4.47;;;21.40;33.10;;;;;;5029349;28;21150;-68
2021/01/06 13:12:24;;;;;;;5.88;4.45;;;21.40;33.10;;;;;;5029236;28;20407;-68
2021/01/06 13:15:32;;;;;;;4.93;4.32;;;21.40;33.10;;;;;;5028190;28;20461;-69
2021/01/06 13:18:11;;;;;;;4.95;4.40;;;21.40;33.10;;;;;;5031719;28;20395;-68
2021/01/06 13:20:47;;;;;;;4.90;4.40;;;21.40;33.10;;;;;;5025957;28;20455;-68
2021/01/06 13:23:25;;;;;;;5.22;4.20;;;21.40;32.80;;;;;;5028833;28;20398;-68
2021/01/06 13:26:15;;;;;;;5.70;4.32;;;21.40;32.90;;;;;;5030793;28;20477;-68
2021/01/06 13:28:52;;;;;;;4.93;4.07;;;21.40;33.50;;;;;;5029697;28;20437;-68
2021/01/06 13:31:43;;;;;;;5.80;4.30;;;21.40;33.30;;;;;;5029244;28;20922;-68
2021/01/06 13:34:35;;;;;;;6.18;4.68;;;21.40;32.80;;;;;;5029943;28;20406;-68